Abercarn, United Kingdom
Current Conditions -  °F | °C
As of 10:50 AM on Friday 19 Dec 2014 (Local Time) from EGFF Reporting Station
Overcast Overcast  
Wind Chill: 40°   Ceiling: 3800
Heat Index: 46°   Visibility: 6mi
Dew Point: 39°   Wind: 15mph
Humidity: 76%   Direction: 280°W
Pressure: 30.03"   Gusts: NA
Location:  51.65°N, 3.13°W
Report Text: EGFF 191050Z AUTO 28013KT 9999 FEW033 OVC038 08/04 Q1017
Loading
Personal Weather Stations






























Interactive Weather Map New forecast layout! Learn more

10-Day Weather Forecast

Advertisements
Track Severe Weather on mobile